sensor_id;sensor_type;location;lat;lon;timestamp;pressure;altitude;pressure_sealevel;temperature;humidity
5350;BME280;2697;42.144;24.794;2023-09-18T00:02:06;157702.03;;;19.85;100.00
5350;BME280;2697;42.144;24.794;2023-09-18T00:04:31;157691.41;;;19.81;100.00
5350;BME280;2697;42.144;24.794;2023-09-18T00:06:57;157684.78;;;19.78;100.00
5350;BME280;2697;42.144;24.794;2023-09-18T00:09:22;157675.53;;;19.75;100.00
5350;BME280;2697;42.144;24.794;2023-09-18T00:11:47;157670.19;;;19.73;100.00
5350;BME280;2697;42.144;24.794;2023-09-18T00:14:13;157675.53;;;19.75;100.00
5350;BME280;2697;42.144;24.794;2023-09-18T00:16:38;157680.81;;;19.77;100.00
5350;BME280;2697;42.144;24.794;2023-09-18T00:19:04;157667.53;;;19.72;100.00
5350;BME280;2697;42.144;24.794;2023-09-18T00:21:31;157662.25;;;19.70;100.00
5350;BME280;2697;42.144;24.794;2023-09-18T00:23:57;157663.56;;;19.70;100.00
5350;BME280;2697;42.144;24.794;2023-09-18T00:26:25;157660.91;;;19.69;100.00
5350;BME280;2697;42.144;24.794;2023-09-18T00:28:50;157674.19;;;19.74;100.00
5350;BME280;2697;42.144;24.794;2023-09-18T00:31:16;157687.44;;;19.79;100.00
5350;BME280;2697;42.144;24.794;2023-09-18T00:33:41;157668.84;;;19.72;100.00
5350;BME280;2697;42.144;24.794;2023-09-18T00:36:06;157680.81;;;19.77;100.00
5350;BME280;2697;42.144;24.794;2023-09-18T00:38:32;157684.78;;;19.78;100.00
5350;BME280;2697;42.144;24.794;2023-09-18T00:40:57;157678.16;;;19.76;100.00
5350;BME280;2697;42.144;24.794;2023-09-18T00:43:22;157670.19;;;19.73;100.00
5350;BME280;2697;42.144;24.794;2023-09-18T00:45:48;157664.88;;;19.71;100.00
5350;BME280;2697;42.144;24.794;2023-09-18T00:48:15;157646.31;;;19.63;100.00
5350;BME280;2697;42.144;24.794;2023-09-18T00:50:41;157643.66;;;19.62;100.00
5350;BME280;2697;42.144;24.794;2023-09-18T00:53:07;157647.69;;;19.64;100.00
5350;BME280;2697;42.144;24.794;2023-09-18T00:55:36;157635.72;;;19.59;100.00
5350;BME280;2697;42.144;24.794;2023-09-18T00:58:02;157622.44;;;19.54;100.00
5350;BME280;2697;42.144;24.794;2023-09-18T01:00:28;157614.47;;;19.51;100.00
5350;BME280;2697;42.144;24.794;2023-09-18T01:02:55;157626.47;;;19.56;100.00
5350;BME280;2697;42.144;24.794;2023-09-18T01:05:20;157605.19;;;19.48;100.00
5350;BME280;2697;42.144;24.794;2023-09-18T01:07:46;157599.91;;;19.46;100.00
5350;BME280;2697;42.144;24.794;2023-09-18T01:10:12;157613.13;;;19.51;100.00
5350;BME280;2697;42.144;24.794;2023-09-18T01:12:47;157597.22;;;19.45;100.00
5350;BME280;2697;42.144;24.794;2023-09-18T01:15:52;157593.25;;;19.43;100.00
5350;BME280;2697;42.144;24.794;2023-09-18T01:18:19;157597.22;;;19.45;100.00
5350;BME280;2697;42.144;24.794;2023-09-18T01:20:45;157598.59;;;19.45;100.00
5350;BME280;2697;42.144;24.794;2023-09-18T01:23:10;157593.25;;;19.43;100.00
5350;BME280;2697;42.144;24.794;2023-09-18T01:25:37;157582.66;;;19.39;100.00
5350;BME280;2697;42.144;24.794;2023-09-18T01:28:03;157585.31;;;19.40;100.00
5350;BME280;2697;42.144;24.794;2023-09-18T01:30:28;157590.59;;;19.42;100.00
5350;BME280;2697;42.144;24.794;2023-09-18T01:32:56;157590.59;;;19.42;100.00
5350;BME280;2697;42.144;24.794;2023-09-18T01:35:22;157590.59;;;19.42;100.00
5350;BME280;2697;42.144;24.794;2023-09-18T01:37:58;157623.78;;;19.55;100.00
5350;BME280;2697;42.144;24.794;2023-09-18T01:40:25;157602.56;;;19.47;100.00
5350;BME280;2697;42.144;24.794;2023-09-18T01:42:52;157578.69;;;19.38;100.00
5350;BME280;2697;42.144;24.794;2023-09-18T01:45:17;157566.75;;;19.33;100.00
5350;BME280;2697;42.144;24.794;2023-09-18T01:47:45;157564.09;;;19.32;100.00
5350;BME280;2697;42.144;24.794;2023-09-18T01:50:11;157574.72;;;19.36;100.00
5350;BME280;2697;42.144;24.794;2023-09-18T01:52:36;157556.16;;;19.29;100.00
5350;BME280;2697;42.144;24.794;2023-09-18T01:55:02;157561.44;;;19.31;100.00
5350;BME280;2697;42.144;24.794;2023-09-18T01:57:31;157558.81;;;19.30;100.00
5350;BME280;2697;42.144;24.794;2023-09-18T01:59:56;157565.41;;;19.32;100.00
5350;BME280;2697;42.144;24.794;2023-09-18T02:02:22;157569.38;;;19.34;100.00
5350;BME280;2697;42.144;24.794;2023-09-18T02:04:47;157564.09;;;19.32;100.00
5350;BME280;2697;42.144;24.794;2023-09-18T02:07:12;157565.41;;;19.32;100.00
5350;BME280;2697;42.144;24.794;2023-09-18T02:09:38;157565.41;;;19.32;100.00
5350;BME280;2697;42.144;24.794;2023-09-18T02:12:04;157564.09;;;19.32;100.00
5350;BME280;2697;42.144;24.794;2023-09-18T02:14:29;157566.75;;;19.33;100.00
5350;BME280;2697;42.144;24.794;2023-09-18T02:16:56;157569.38;;;19.34;100.00
5350;BME280;2697;42.144;24.794;2023-09-18T02:19:23;157566.75;;;19.33;100.00
5350;BME280;2697;42.144;24.794;2023-09-18T02:21:48;157561.44;;;19.31;100.00
5350;BME280;2697;42.144;24.794;2023-09-18T02:24:13;157560.13;;;19.30;100.00
5350;BME280;2697;42.144;24.794;2023-09-18T02:26:39;157564.09;;;19.32;100.00
5350;BME280;2697;42.144;24.794;2023-09-18T02:29:08;157560.13;;;19.30;100.00
5350;BME280;2697;42.144;24.794;2023-09-18T02:31:38;157582.66;;;19.39;100.00
5350;BME280;2697;42.144;24.794;2023-09-18T02:34:04;157590.59;;;19.42;100.00
5350;BME280;2697;42.144;24.794;2023-09-18T02:36:30;157599.91;;;19.46;100.00
5350;BME280;2697;42.144;24.794;2023-09-18T02:38:55;157603.88;;;19.47;100.00
5350;BME280;2697;42.144;24.794;2023-09-18T02:41:20;157618.44;;;19.53;100.00
5350;BME280;2697;42.144;24.794;2023-09-18T02:43:46;157609.16;;;19.49;100.00
5350;BME280;2697;42.144;24.794;2023-09-18T02:46:11;157605.19;;;19.48;100.00
5350;BME280;2697;42.144;24.794;2023-09-18T02:48:37;157625.09;;;19.55;100.00
5350;BME280;2697;42.144;24.794;2023-09-18T02:51:02;157638.38;;;19.60;100.00
5350;BME280;2697;42.144;24.794;2023-09-18T02:53:28;157646.31;;;19.63;100.00
5350;BME280;2697;42.144;24.794;2023-09-18T02:55:55;157641.00;;;19.61;100.00
5350;BME280;2697;42.144;24.794;2023-09-18T02:58:21;157647.69;;;19.64;100.00
5350;BME280;2697;42.144;24.794;2023-09-18T03:00:49;157643.66;;;19.62;100.00
5350;BME280;2697;42.144;24.794;2023-09-18T03:03:16;157643.66;;;19.62;100.00
5350;BME280;2697;42.144;24.794;2023-09-18T03:05:43;157650.34;;;19.65;100.00
5350;BME280;2697;42.144;24.794;2023-09-18T03:08:09;157603.88;;;19.47;100.00
5350;BME280;2697;42.144;24.794;2023-09-18T03:10:41;157595.88;;;19.44;100.00
5350;BME280;2697;42.144;24.794;2023-09-18T03:13:08;157614.47;;;19.51;100.00
5350;BME280;2697;42.144;24.794;2023-09-18T03:15:34;157614.47;;;19.51;100.00
5350;BME280;2697;42.144;24.794;2023-09-18T03:18:01;157603.88;;;19.47;100.00
5350;BME280;2697;42.144;24.794;2023-09-18T03:20:28;157602.56;;;19.47;100.00
5350;BME280;2697;42.144;24.794;2023-09-18T03:22:58;157606.53;;;19.48;100.00
5350;BME280;2697;42.144;24.794;2023-09-18T03:25:25;157603.88;;;19.47;100.00
5350;BME280;2697;42.144;24.794;2023-09-18T03:27:55;157614.47;;;19.51;100.00
5350;BME280;2697;42.144;24.794;2023-09-18T03:30:21;157629.13;;;19.57;100.00
5350;BME280;2697;42.144;24.794;2023-09-18T03:32:48;157639.69;;;19.61;100.00
5350;BME280;2697;42.144;24.794;2023-09-18T03:35:14;157650.34;;;19.65;100.00
5350;BME280;2697;42.144;24.794;2023-09-18T03:37:49;157643.66;;;19.62;100.00
5350;BME280;2697;42.144;24.794;2023-09-18T03:40:19;157656.94;;;19.68;100.00
5350;BME280;2697;42.144;24.794;2023-09-18T03:42:45;157638.38;;;19.60;100.00
5350;BME280;2697;42.144;24.794;2023-09-18T03:45:11;157634.41;;;19.59;100.00
5350;BME280;2697;42.144;24.794;2023-09-18T03:47:38;157641.00;;;19.61;100.00
5350;BME280;2697;42.144;24.794;2023-09-18T03:50:08;157650.34;;;19.65;100.00
5350;BME280;2697;42.144;24.794;2023-09-18T03:52:35;157663.56;;;19.70;100.00
5350;BME280;2697;42.144;24.794;2023-09-18T03:55:00;157664.88;;;19.71;100.00
5350;BME280;2697;42.144;24.794;2023-09-18T03:57:26;157649.00;;;19.64;100.00
5350;BME280;2697;42.144;24.794;2023-09-18T03:59:51;157625.09;;;19.55;100.00
5350;BME280;2697;42.144;24.794;2023-09-18T04:02:16;157633.09;;;19.58;100.00
5350;BME280;2697;42.144;24.794;2023-09-18T04:04:42;157630.44;;;19.57;100.00
5350;BME280;2697;42.144;24.794;2023-09-18T04:07:08;157622.44;;;19.54;100.00
5350;BME280;2697;42.144;24.794;2023-09-18T04:09:34;157607.84;;;19.49;100.00
5350;BME280;2697;42.144;24.794;2023-09-18T04:12:03;157630.44;;;19.57;100.00
5350;BME280;2697;42.144;24.794;2023-09-18T04:14:31;157646.31;;;19.63;100.00
5350;BME280;2697;42.144;24.794;2023-09-18T04:16:56;157679.50;;;19.76;100.00
5350;BME280;2697;42.144;24.794;2023-09-18T04:19:22;157678.16;;;19.76;100.00
5350;BME280;2697;42.144;24.794;2023-09-18T04:21:47;157682.13;;;19.77;100.00
5350;BME280;2697;42.144;24.794;2023-09-18T04:24:13;157686.09;;;19.79;100.00
5350;BME280;2697;42.144;24.794;2023-09-18T04:26:38;157706.00;;;19.86;100.00
5350;BME280;2697;42.144;24.794;2023-09-18T04:29:04;157717.91;;;19.91;100.00
5350;BME280;2697;42.144;24.794;2023-09-18T04:31:30;157704.69;;;19.86;100.00
5350;BME280;2697;42.144;24.794;2023-09-18T04:33:56;157712.63;;;19.89;100.00
5350;BME280;2697;42.144;24.794;2023-09-18T04:36:21;157725.91;;;19.94;100.00
5350;BME280;2697;42.144;24.794;2023-09-18T04:38:47;157728.53;;;19.95;100.00
5350;BME280;2697;42.144;24.794;2023-09-18T04:41:13;157727.22;;;19.95;100.00
5350;BME280;2697;42.144;24.794;2023-09-18T04:43:40;157771.00;;;20.11;100.00
5350;BME280;2697;42.144;24.794;2023-09-18T04:46:05;157772.31;;;20.12;100.00
5350;BME280;2697;42.144;24.794;2023-09-18T04:48:31;157802.81;;;20.24;100.00
5350;BME280;2697;42.144;24.794;2023-09-18T04:50:58;157813.41;;;20.28;100.00
5350;BME280;2697;42.144;24.794;2023-09-18T04:53:23;157853.25;;;20.43;100.00
5350;BME280;2697;42.144;24.794;2023-09-18T04:55:49;157869.19;;;20.49;100.00
5350;BME280;2697;42.144;24.794;2023-09-18T04:58:15;157885.09;;;20.55;100.00
5350;BME280;2697;42.144;24.794;2023-09-18T05:00:41;157887.72;;;20.56;100.00
5350;BME280;2697;42.144;24.794;2023-09-18T05:03:07;157878.47;;;20.53;100.00
5350;BME280;2697;42.144;24.794;2023-09-18T05:05:34;157916.97;;;20.67;100.00
5350;BME280;2697;42.144;24.794;2023-09-18T05:08:07;157911.63;;;20.65;100.00
5350;BME280;2697;42.144;24.794;2023-09-18T05:10:36;157955.41;;;20.82;100.00
5350;BME280;2697;42.144;24.794;2023-09-18T05:13:02;158001.84;;;21.00;100.00
5350;BME280;2697;42.144;24.794;2023-09-18T05:15:28;158046.97;;;21.17;100.00
5350;BME280;2697;42.144;24.794;2023-09-18T05:17:58;158085.53;;;21.32;100.00
5350;BME280;2697;42.144;24.794;2023-09-18T05:20:25;158090.84;;;21.34;100.00
5350;BME280;2697;42.144;24.794;2023-09-18T05:22:55;158094.81;;;21.36;100.00
5350;BME280;2697;42.144;24.794;2023-09-18T05:25:26;158169.16;;;21.64;100.00
5350;BME280;2697;42.144;24.794;2023-09-18T05:27:53;158150.56;;;21.57;100.00
5350;BME280;2697;42.144;24.794;2023-09-18T05:30:42;158117.38;;;21.44;100.00
5350;BME280;2697;42.144;24.794;2023-09-18T05:33:08;158147.91;;;21.56;100.00
5350;BME280;2697;42.144;24.794;2023-09-18T05:35:36;158243.50;;;21.92;100.00
5350;BME280;2697;42.144;24.794;2023-09-18T05:38:04;158165.19;;;21.62;100.00
5350;BME280;2697;42.144;24.794;2023-09-18T05:40:30;158129.31;;;21.49;100.00
5350;BME280;2697;42.144;24.794;2023-09-18T05:42:56;158100.13;;;21.38;100.00
5350;BME280;2697;42.144;24.794;2023-09-18T05:45:22;158118.72;;;21.45;100.00
5350;BME280;2697;42.144;24.794;2023-09-18T05:47:48;158139.97;;;21.53;100.00
5350;BME280;2697;42.144;24.794;2023-09-18T05:50:14;158084.22;;;21.31;100.00
5350;BME280;2697;42.144;24.794;2023-09-18T05:52:44;158036.38;;;21.13;100.00
5350;BME280;2697;42.144;24.794;2023-09-18T05:55:10;158043.00;;;21.16;100.00
5350;BME280;2697;42.144;24.794;2023-09-18T05:57:35;157985.91;;;20.94;100.00
5350;BME280;2697;42.144;24.794;2023-09-18T06:00:01;157954.09;;;20.82;100.00
5350;BME280;2697;42.144;24.794;2023-09-18T06:02:27;157952.75;;;20.81;100.00
5350;BME280;2697;42.144;24.794;2023-09-18T06:04:57;157971.34;;;20.88;100.00
5350;BME280;2697;42.144;24.794;2023-09-18T06:07:26;158019.13;;;21.06;100.00
5350;BME280;2697;42.144;24.794;2023-09-18T06:09:52;158108.13;;;21.41;100.00
5350;BME280;2697;42.144;24.794;2023-09-18T06:12:17;158178.44;;;21.68;100.00
5350;BME280;2697;42.144;24.794;2023-09-18T06:14:44;158298.00;;;22.13;100.00
5350;BME280;2697;42.144;24.794;2023-09-18T06:17:11;158387.00;;;22.47;100.00
5350;BME280;2697;42.144;24.794;2023-09-18T06:19:37;158368.38;;;22.40;100.00
5350;BME280;2697;42.144;24.794;2023-09-18T06:22:02;158315.28;;;22.20;100.00
5350;BME280;2697;42.144;24.794;2023-09-18T06:24:28;158312.63;;;22.19;100.00
5350;BME280;2697;42.144;24.794;2023-09-18T06:26:54;158324.56;;;22.24;100.00
5350;BME280;2697;42.144;24.794;2023-09-18T06:29:19;158308.66;;;22.17;100.00
5350;BME280;2697;42.144;24.794;2023-09-18T06:31:45;158397.59;;;22.52;100.00
5350;BME280;2697;42.144;24.794;2023-09-18T06:34:11;158351.16;;;22.34;100.00
5350;BME280;2697;42.144;24.794;2023-09-18T06:36:36;158375.06;;;22.43;100.00
5350;BME280;2697;42.144;24.794;2023-09-18T06:39:02;158373.69;;;22.42;100.00
5350;BME280;2697;42.144;24.794;2023-09-18T06:41:28;158306.00;;;22.16;100.00
5350;BME280;2697;42.144;24.794;2023-09-18T06:43:53;158313.94;;;22.19;100.00
5350;BME280;2697;42.144;24.794;2023-09-18T06:46:18;158421.53;;;22.61;98.18
5350;BME280;2697;42.144;24.794;2023-09-18T06:48:44;158559.78;;;23.14;93.26
5350;BME280;2697;42.144;24.794;2023-09-18T06:51:11;158507.97;;;22.94;93.78
5350;BME280;2697;42.144;24.794;2023-09-18T06:53:36;158555.78;;;23.12;93.90
5350;BME280;2697;42.144;24.794;2023-09-18T06:56:01;158604.97;;;23.31;91.26
5350;BME280;2697;42.144;24.794;2023-09-18T06:58:27;158679.44;;;23.59;90.37
5350;BME280;2697;42.144;24.794;2023-09-18T07:00:52;158630.22;;;23.41;88.66
5350;BME280;2697;42.144;24.794;2023-09-18T07:03:17;158704.72;;;23.69;88.72
5350;BME280;2697;42.144;24.794;2023-09-18T07:05:43;158663.44;;;23.53;85.95
5350;BME280;2697;42.144;24.794;2023-09-18T07:08:08;158612.94;;;23.34;85.79
5350;BME280;2697;42.144;24.794;2023-09-18T07:10:37;158589.00;;;23.25;85.07
5350;BME280;2697;42.144;24.794;2023-09-18T07:13:03;158694.09;;;23.65;84.39
5350;BME280;2697;42.144;24.794;2023-09-18T07:15:28;158607.63;;;23.32;86.05
5350;BME280;2697;42.144;24.794;2023-09-18T07:17:54;158509.28;;;22.94;87.58
5350;BME280;2697;42.144;24.794;2023-09-18T07:20:20;158590.31;;;23.25;89.53
5350;BME280;2697;42.144;24.794;2023-09-18T07:22:47;158554.47;;;23.12;89.17
5350;BME280;2697;42.144;24.794;2023-09-18T07:25:13;158626.25;;;23.39;87.00
5350;BME280;2697;42.144;24.794;2023-09-18T07:27:39;158561.09;;;23.14;89.75
5350;BME280;2697;42.144;24.794;2023-09-18T07:30:10;158594.34;;;23.27;88.09
5350;BME280;2697;42.144;24.794;2023-09-18T07:32:35;158598.34;;;23.28;87.30
5350;BME280;2697;42.144;24.794;2023-09-18T07:35:01;158563.75;;;23.15;86.63
5350;BME280;2697;42.144;24.794;2023-09-18T07:37:27;158658.13;;;23.51;85.20
5350;BME280;2697;42.144;24.794;2023-09-18T07:39:53;158722.00;;;23.76;84.02
5350;BME280;2697;42.144;24.794;2023-09-18T07:42:18;158640.84;;;23.45;84.63
5350;BME280;2697;42.144;24.794;2023-09-18T07:44:44;158595.69;;;23.27;86.22
5350;BME280;2697;42.144;24.794;2023-09-18T07:47:09;158527.91;;;23.01;86.28
5350;BME280;2697;42.144;24.794;2023-09-18T07:49:34;158765.91;;;23.93;84.08
5350;BME280;2697;42.144;24.794;2023-09-18T07:52:00;158934.84;;;24.57;80.69
5350;BME280;2697;42.144;24.794;2023-09-18T07:54:25;159035.94;;;24.96;77.98
5350;BME280;2697;42.144;24.794;2023-09-18T07:56:50;159093.22;;;25.18;76.69
5350;BME280;2697;42.144;24.794;2023-09-18T07:59:16;158993.38;;;24.80;75.51
5350;BME280;2697;42.144;24.794;2023-09-18T08:01:42;158912.25;;;24.49;75.78
5350;BME280;2697;42.144;24.794;2023-09-18T08:04:07;158889.63;;;24.40;76.85
5350;BME280;2697;42.144;24.794;2023-09-18T08:06:32;158792.47;;;24.03;77.98
5350;BME280;2697;42.144;24.794;2023-09-18T08:08:58;158791.16;;;24.02;79.13
5350;BME280;2697;42.144;24.794;2023-09-18T08:11:23;158823.06;;;24.14;78.89
5350;BME280;2697;42.144;24.794;2023-09-18T08:13:48;158803.09;;;24.07;77.36
5350;BME280;2697;42.144;24.794;2023-09-18T08:16:14;158837.72;;;24.20;76.01
5350;BME280;2697;42.144;24.794;2023-09-18T08:18:40;158741.97;;;23.83;76.65
5350;BME280;2697;42.144;24.794;2023-09-18T08:21:07;158664.75;;;23.54;78.26
5350;BME280;2697;42.144;24.794;2023-09-18T08:23:37;158687.41;;;23.63;77.51
5350;BME280;2697;42.144;24.794;2023-09-18T08:26:03;158867.00;;;24.31;74.69
5350;BME280;2697;42.144;24.794;2023-09-18T08:28:29;158840.34;;;24.21;75.19
5350;BME280;2697;42.144;24.794;2023-09-18T08:30:55;158897.59;;;24.43;73.60
5350;BME280;2697;42.144;24.794;2023-09-18T08:33:20;158815.09;;;24.11;73.84
5350;BME280;2697;42.144;24.794;2023-09-18T08:35:46;159006.63;;;24.85;70.70
5350;BME280;2697;42.144;24.794;2023-09-18T08:38:12;159083.91;;;25.14;70.11
5350;BME280;2697;42.144;24.794;2023-09-18T08:40:40;159102.50;;;25.21;70.98
5350;BME280;2697;42.144;24.794;2023-09-18T08:43:07;159081.25;;;25.13;71.35
5350;BME280;2697;42.144;24.794;2023-09-18T08:45:47;158986.72;;;24.77;72.59
5350;BME280;2697;42.144;24.794;2023-09-18T08:48:15;158932.16;;;24.56;72.71
5350;BME280;2697;42.144;24.794;2023-09-18T08:50:41;159042.59;;;24.98;71.18
5350;BME280;2697;42.144;24.794;2023-09-18T08:53:07;159102.50;;;25.21;70.47
5350;BME280;2697;42.144;24.794;2023-09-18T08:55:33;159075.88;;;25.11;70.22
5350;BME280;2697;42.144;24.794;2023-09-18T08:57:59;159053.28;;;25.02;68.07
5350;BME280;2697;42.144;24.794;2023-09-18T09:00:25;158945.47;;;24.61;67.60
5350;BME280;2697;42.144;24.794;2023-09-18T09:02:51;159058.63;;;25.05;66.43
5350;BME280;2697;42.144;24.794;2023-09-18T09:05:22;159119.81;;;25.28;66.80
5350;BME280;2697;42.144;24.794;2023-09-18T09:07:49;158998.69;;;24.82;68.40
5350;BME280;2697;42.144;24.794;2023-09-18T09:10:15;159073.22;;;25.10;69.36
5350;BME280;2697;42.144;24.794;2023-09-18T09:12:57;158940.16;;;24.59;71.08
5350;BME280;2697;42.144;24.794;2023-09-18T09:15:25;159087.91;;;25.16;69.38
5350;BME280;2697;42.144;24.794;2023-09-18T09:18:01;159175.69;;;25.49;68.23
5350;BME280;2697;42.144;24.794;2023-09-18T09:20:26;159035.94;;;24.96;69.31
5350;BME280;2697;42.144;24.794;2023-09-18T09:23:00;159209.00;;;25.62;67.10
5350;BME280;2697;42.144;24.794;2023-09-18T09:25:28;159133.16;;;25.33;66.89
5350;BME280;2697;42.144;24.794;2023-09-18T09:28:00;159099.84;;;25.20;68.39
5350;BME280;2697;42.144;24.794;2023-09-18T09:30:27;159222.28;;;25.67;65.40
5350;BME280;2697;42.144;24.794;2023-09-18T09:32:55;159182.41;;;25.52;66.83
5350;BME280;2697;42.144;24.794;2023-09-18T09:35:28;159222.28;;;25.67;66.24
5350;BME280;2697;42.144;24.794;2023-09-18T09:37:59;159307.56;;;26.00;64.49
5350;BME280;2697;42.144;24.794;2023-09-18T09:40:26;159255.66;;;25.80;64.27
5350;BME280;2697;42.144;24.794;2023-09-18T09:42:56;159189.03;;;25.54;65.02
5350;BME280;2697;42.144;24.794;2023-09-18T09:45:31;159291.59;;;25.94;64.63
5350;BME280;2697;42.144;24.794;2023-09-18T09:48:01;159462.09;;;26.59;61.02
5350;BME280;2697;42.144;24.794;2023-09-18T09:50:27;159276.97;;;25.88;60.99
5350;BME280;2697;42.144;24.794;2023-09-18T09:52:54;159122.47;;;25.29;63.24
5350;BME280;2697;42.144;24.794;2023-09-18T09:57:53;159171.72;;;25.48;62.46
5350;BME280;2697;42.144;24.794;2023-09-18T10:00:19;159291.59;;;25.94;61.65
5350;BME280;2697;42.144;24.794;2023-09-18T10:03:08;159307.56;;;26.00;61.90
5350;BME280;2697;42.144;24.794;2023-09-18T10:05:39;159326.22;;;26.07;61.01
5350;BME280;2697;42.144;24.794;2023-09-18T10:08:10;159162.41;;;25.44;62.85
5350;BME280;2697;42.144;24.794;2023-09-18T10:10:48;159291.59;;;25.94;61.14
5350;BME280;2697;42.144;24.794;2023-09-18T10:13:24;159496.75;;;26.72;59.56
5350;BME280;2697;42.144;24.794;2023-09-18T10:15:53;159428.81;;;26.46;58.48
5350;BME280;2697;42.144;24.794;2023-09-18T10:18:28;159486.06;;;26.68;57.32
5350;BME280;2697;42.144;24.794;2023-09-18T10:21:06;159512.69;;;26.78;57.43
5350;BME280;2697;42.144;24.794;2023-09-18T10:26:06;159487.41;;;26.68;55.23
5350;BME280;2697;42.144;24.794;2023-09-18T10:28:33;159463.41;;;26.59;56.59
5350;BME280;2697;42.144;24.794;2023-09-18T10:31:00;159574.00;;;27.02;57.04
5350;BME280;2697;42.144;24.794;2023-09-18T10:33:26;159494.09;;;26.71;57.17
5350;BME280;2697;42.144;24.794;2023-09-18T10:35:53;159556.69;;;26.95;54.66
5350;BME280;2697;42.144;24.794;2023-09-18T10:38:18;159398.13;;;26.34;56.52
5350;BME280;2697;42.144;24.794;2023-09-18T10:40:46;159402.13;;;26.36;56.16
5350;BME280;2697;42.144;24.794;2023-09-18T10:43:15;159408.81;;;26.38;56.14
5350;BME280;2697;42.144;24.794;2023-09-18T10:45:42;159458.09;;;26.57;56.63
5350;BME280;2697;42.144;24.794;2023-09-18T10:48:09;159400.78;;;26.35;56.70
5350;BME280;2697;42.144;24.794;2023-09-18T10:50:39;159456.78;;;26.57;55.69
5350;BME280;2697;42.144;24.794;2023-09-18T10:53:05;159536.69;;;26.87;55.44
5350;BME280;2697;42.144;24.794;2023-09-18T10:55:31;159435.44;;;26.49;54.69
5350;BME280;2697;42.144;24.794;2023-09-18T10:57:59;159442.09;;;26.51;55.43
5350;BME280;2697;42.144;24.794;2023-09-18T11:00:26;159480.75;;;26.66;53.76
5350;BME280;2697;42.144;24.794;2023-09-18T11:02:53;159404.78;;;26.37;54.53
5350;BME280;2697;42.144;24.794;2023-09-18T11:05:34;159408.81;;;26.38;55.82
5350;BME280;2697;42.144;24.794;2023-09-18T11:08:25;159495.41;;;26.72;54.33
5350;BME280;2697;42.144;24.794;2023-09-18T11:10:58;159531.38;;;26.85;51.71
5350;BME280;2697;42.144;24.794;2023-09-18T11:13:28;159507.38;;;26.76;52.19
5350;BME280;2697;42.144;24.794;2023-09-18T11:15:59;159454.13;;;26.56;51.52
5350;BME280;2697;42.144;24.794;2023-09-18T11:18:32;159486.06;;;26.68;51.67
5350;BME280;2697;42.144;24.794;2023-09-18T11:21:07;159536.69;;;26.87;50.76
5350;BME280;2697;42.144;24.794;2023-09-18T11:23:37;159511.38;;;26.78;51.25
5350;BME280;2697;42.144;24.794;2023-09-18T11:26:10;159352.84;;;26.17;52.63
5350;BME280;2697;42.144;24.794;2023-09-18T11:28:37;159371.47;;;26.24;51.63
5350;BME280;2697;42.144;24.794;2023-09-18T11:31:03;159271.59;;;25.86;52.64
5350;BME280;2697;42.144;24.794;2023-09-18T11:33:36;159411.47;;;26.39;52.22
5350;BME280;2697;42.144;24.794;2023-09-18T11:36:08;159416.78;;;26.41;52.42
5350;BME280;2697;42.144;24.794;2023-09-18T11:38:57;159528.72;;;26.84;51.48
5350;BME280;2697;42.144;24.794;2023-09-18T11:41:27;159583.38;;;27.05;50.15
5350;BME280;2697;42.144;24.794;2023-09-18T11:46:48;159598.03;;;27.11;49.91
5350;BME280;2697;42.144;24.794;2023-09-18T11:49:24;159616.72;;;27.18;50.05
5350;BME280;2697;42.144;24.794;2023-09-18T11:51:54;159675.31;;;27.40;49.76
5350;BME280;2697;42.144;24.794;2023-09-18T11:54:19;159705.97;;;27.52;49.29
5350;BME280;2697;42.144;24.794;2023-09-18T11:56:46;159656.66;;;27.33;49.35
5350;BME280;2697;42.144;24.794;2023-09-18T11:59:11;159675.31;;;27.40;48.05
5350;BME280;2697;42.144;24.794;2023-09-18T12:01:38;159675.31;;;27.40;48.83
5350;BME280;2697;42.144;24.794;2023-09-18T12:04:11;159483.41;;;26.67;49.70
5350;BME280;2697;42.144;24.794;2023-09-18T12:06:39;159456.78;;;26.57;49.74
5350;BME280;2697;42.144;24.794;2023-09-18T12:09:05;159582.03;;;27.05;48.60
5350;BME280;2697;42.144;24.794;2023-09-18T12:11:32;159539.34;;;26.88;49.53
5350;BME280;2697;42.144;24.794;2023-09-18T12:13:59;159486.06;;;26.68;50.24
5350;BME280;2697;42.144;24.794;2023-09-18T12:16:25;159552.69;;;26.93;50.23
5350;BME280;2697;42.144;24.794;2023-09-18T12:18:50;159622.03;;;27.20;49.43
5350;BME280;2697;42.144;24.794;2023-09-18T12:21:17;159699.31;;;27.49;48.31
5350;BME280;2697;42.144;24.794;2023-09-18T12:23:44;159721.97;;;27.58;46.67
5350;BME280;2697;42.144;24.794;2023-09-18T12:26:14;159707.28;;;27.52;47.18
5350;BME280;2697;42.144;24.794;2023-09-18T12:28:41;159724.63;;;27.59;47.13
5350;BME280;2697;42.144;24.794;2023-09-18T12:31:14;159668.66;;;27.38;47.62
5350;BME280;2697;42.144;24.794;2023-09-18T12:33:41;159687.28;;;27.45;48.10
5350;BME280;2697;42.144;24.794;2023-09-18T12:36:09;159740.66;;;27.65;47.90
5350;BME280;2697;42.144;24.794;2023-09-18T12:38:35;159733.94;;;27.63;47.76
5350;BME280;2697;42.144;24.794;2023-09-18T12:41:03;159567.38;;;26.99;48.28
5350;BME280;2697;42.144;24.794;2023-09-18T12:43:39;159491.38;;;26.70;49.69
5350;BME280;2697;42.144;24.794;2023-09-18T12:46:05;159490.06;;;26.69;49.31
5350;BME280;2697;42.144;24.794;2023-09-18T12:48:32;159510.03;;;26.77;48.87
5350;BME280;2697;42.144;24.794;2023-09-18T12:51:03;159598.03;;;27.11;47.57
5350;BME280;2697;42.144;24.794;2023-09-18T12:53:29;159651.34;;;27.31;46.82
5350;BME280;2697;42.144;24.794;2023-09-18T12:55:54;159684.63;;;27.44;46.08
5350;BME280;2697;42.144;24.794;2023-09-18T12:58:29;159568.69;;;26.99;45.16
5350;BME280;2697;42.144;24.794;2023-09-18T13:00:54;159592.72;;;27.09;45.53
5350;BME280;2697;42.144;24.794;2023-09-18T13:03:20;159540.66;;;26.89;44.75
5350;BME280;2697;42.144;24.794;2023-09-18T13:05:45;159539.34;;;26.88;45.47